Time;durP1;ratioP1;P1;durP2;ratioP2;P2;SDS_P1;SDS_P2;PMS_P1;PMS_P2;Temp;Humidity;BMP_temperature;BMP_pressure;BME280_temperature;BME280_humidity;BME280_pressure;Samples;Min_cycle;Max_cycle;Signal;HPM_P1;HPM_P2
2022/01/23 00:01:52;;;;;;;0.50;0.10;;;7.60;1.00;;;;;;5054624;28;20455;-74
2022/01/23 00:04:20;;;;;;;1.20;1.03;;;7.50;1.00;;;;;;5056378;28;20468;-75
2022/01/23 00:06:48;;;;;;;0.90;0.60;;;7.60;1.00;;;;;;5057759;28;20480;-74
2022/01/23 00:09:18;;;;;;;30.70;28.40;;;7.60;1.00;;;;;;5043260;28;20454;-74
2022/01/23 00:11:52;;;;;;;0.50;0.10;;;7.60;1.00;;;;;;5050666;28;20547;-74
2022/01/23 00:19:58;;;;;;;0.50;0.10;;;7.60;1.00;;;;;;5038734;28;20441;-74
2022/01/23 00:22:35;;;;;;;0.60;0.50;;;7.60;1.00;;;;;;5036900;28;20458;-74
2022/01/23 00:30:40;;;;;;;0.50;0.30;;;7.50;1.00;;;;;;5034456;28;20519;-75
2022/01/23 00:33:09;;;;;;;0.50;0.10;;;7.50;1.00;;;;;;5034496;28;20474;-74
2022/01/23 00:35:38;;;;;;;0.50;0.10;;;7.50;1.00;;;;;;5049318;28;21007;-75
2022/01/23 00:38:08;;;;;;;0.63;0.47;;;7.50;1.00;;;;;;5053308;28;20949;-74
2022/01/23 00:40:38;;;;;;;0.60;0.10;;;7.60;1.00;;;;;;5053328;28;20444;-74
2022/01/23 00:43:14;;;;;;;0.50;0.10;;;7.60;1.00;;;;;;5053039;28;20471;-74
2022/01/23 00:45:45;;;;;;;0.60;0.30;;;7.60;1.00;;;;;;5053123;28;20452;-73
2022/01/23 00:48:15;;;;;;;0.50;0.10;;;7.60;1.00;;;;;;5047788;28;20456;-74
2022/01/23 00:50:47;;;;;;;0.50;0.10;;;7.70;1.00;;;;;;5033278;28;20480;-74
2022/01/23 00:53:15;;;;;;;0.50;0.10;;;7.60;1.00;;;;;;5032764;28;20987;-74
2022/01/23 00:55:46;;;;;;;0.50;0.27;;;7.60;1.00;;;;;;5032976;28;20493;-73
2022/01/23 00:58:16;;;;;;;0.50;0.13;;;7.60;1.00;;;;;;5033166;28;20464;-72
2022/01/23 01:00:44;;;;;;;0.67;0.67;;;6.80;1.00;;;;;;5033390;28;20472;-74
2022/01/23 01:03:12;;;;;;;1.13;1.03;;;7.60;1.00;;;;;;5045415;28;20473;-74
2022/01/23 01:05:40;;;;;;;0.50;0.10;;;7.60;1.00;;;;;;5052453;28;20471;-74
2022/01/23 01:08:08;;;;;;;0.50;0.10;;;7.60;1.00;;;;;;5053224;28;20431;-75
2022/01/23 01:10:42;;;;;;;2.60;1.90;;;7.60;1.00;;;;;;5052586;28;20493;-74
2022/01/23 01:13:13;;;;;;;0.50;0.20;;;;;;;;;;5052724;28;20559;-74
2022/01/23 01:15:58;;;;;;;0.50;0.10;;;7.60;1.00;;;;;;5051723;28;20444;-74
2022/01/23 01:32:26;;;;;;;0.50;0.20;;;7.50;1.00;;;;;;5011487;28;20489;-74
2022/01/23 01:35:04;;;;;;;0.50;0.10;;;7.50;1.00;;;;;;5011299;28;20486;-73
2022/01/23 01:37:32;;;;;;;2.50;0.80;;;7.50;1.00;;;;;;5012539;28;20465;-73
2022/01/23 01:40:00;;;;;;;0.50;0.10;;;7.50;1.00;;;;;;5012635;28;20830;-74
2022/01/23 01:42:28;;;;;;;0.67;0.67;;;7.50;1.00;;;;;;5034350;28;20813;-74
2022/01/23 01:44:56;;;;;;;0.50;0.10;;;7.50;1.00;;;;;;5051902;28;20464;-74
2022/01/23 01:47:25;;;;;;;0.50;0.30;;;7.50;1.00;;;;;;5054493;28;20421;-74
2022/01/23 01:49:53;;;;;;;0.70;0.47;;;7.50;1.00;;;;;;5061110;28;20441;-74
2022/01/23 01:52:21;;;;;;;10.80;10.40;;;7.50;1.00;;;;;;5052887;28;20853;-74
2022/01/23 01:54:58;;;;;;;0.50;0.10;;;7.50;1.00;;;;;;5051872;28;20463;-74
2022/01/23 01:57:29;;;;;;;0.50;0.10;;;7.50;1.00;;;;;;5036620;28;20454;-74
2022/01/23 02:00:12;;;;;;;0.50;0.13;;;7.50;1.00;;;;;;5032502;28;20814;-75
2022/01/23 02:02:56;;;;;;;0.60;0.47;;;7.50;1.00;;;;;;5031920;28;20441;-73
2022/01/23 02:08:24;;;;;;;0.80;0.80;;;7.60;1.00;;;;;;5025991;28;20819;-74
2022/01/23 02:10:56;;;;;;;0.50;0.10;;;7.60;1.00;;;;;;5031620;28;20486;-73
2022/01/23 02:13:29;;;;;;;0.50;0.10;;;7.60;1.00;;;;;;5031870;28;20466;-74
2022/01/23 02:51:56;;;;;;;0.50;0.20;;;7.60;1.00;;;;;;5057465;28;20484;-74
2022/01/23 02:54:41;;;;;;;0.50;0.10;;;7.60;1.00;;;;;;5054889;28;20992;-74
2022/01/23 02:57:10;;;;;;;0.50;0.10;;;7.70;1.00;;;;;;5037929;28;20464;-74
2022/01/23 02:59:40;;;;;;;0.50;0.10;;;7.70;1.00;;;;;;5035604;28;20469;-74
2022/01/23 03:02:13;;;;;;;0.50;0.10;;;7.70;1.00;;;;;;5034894;28;20809;-74
2022/01/23 03:04:50;;;;;;;0.50;0.10;;;7.70;1.00;;;;;;5035446;28;20546;-74
2022/01/23 03:07:36;;;;;;;0.50;0.10;;;7.70;1.00;;;;;;5035396;28;20448;-74
2022/01/23 03:10:10;;;;;;;0.50;0.10;;;7.70;1.00;;;;;;5035042;28;20955;-75
2022/01/23 03:15:55;;;;;;;0.50;0.10;;;7.70;1.00;;;;;;5047066;28;20450;-74
2022/01/23 03:27:04;;;;;;;0.50;0.10;;;7.80;1.00;;;;;;5015976;28;20473;-73
2022/01/23 03:29:52;;;;;;;0.50;0.10;;;7.70;1.00;;;;;;5029978;28;20531;-74
2022/01/23 03:32:25;;;;;;;0.50;0.10;;;7.70;1.00;;;;;;5034648;28;20492;-74
2022/01/23 03:34:53;;;;;;;0.50;0.10;;;7.80;1.00;;;;;;5033333;28;20489;-73
2022/01/23 03:37:20;;;;;;;0.50;0.10;;;7.80;1.00;;;;;;5034750;28;20454;-73
2022/01/23 03:39:48;;;;;;;0.50;0.10;;;7.80;1.00;;;;;;5034655;28;20948;-74
2022/01/23 03:42:18;;;;;;;0.50;0.10;;;7.80;1.00;;;;;;5034984;28;20444;-74
2022/01/23 03:45:01;;;;;;;0.50;0.10;;;7.70;1.00;;;;;;5039714;28;20475;-73
2022/01/23 03:47:39;;;;;;;0.50;0.10;;;7.70;1.00;;;;;;5056569;28;20824;-73
2022/01/23 03:50:09;;;;;;;1.10;0.87;;;7.80;1.00;;;;;;5061706;28;20445;-74
2022/01/23 03:52:37;;;;;;;0.80;0.60;;;7.70;1.00;;;;;;5060052;28;20526;-73
2022/01/23 03:55:07;;;;;;;0.50;0.10;;;7.70;1.00;;;;;;5048138;28;20477;-74
2022/01/23 03:57:36;;;;;;;0.50;0.10;;;7.70;1.00;;;;;;5037215;28;20969;-74
2022/01/23 04:00:06;;;;;;;0.50;0.10;;;7.70;1.00;;;;;;5041554;28;20438;-74
2022/01/23 04:02:35;;;;;;;1.07;0.97;;;7.70;1.00;;;;;;5038193;28;20945;-74
2022/01/23 04:05:03;;;;;;;0.50;0.10;;;7.70;1.00;;;;;;5041264;28;20473;-74
2022/01/23 04:07:33;;;;;;;0.50;0.10;;;7.60;1.00;;;;;;5054739;28;20452;-73
2022/01/23 04:10:01;;;;;;;0.50;0.10;;;7.60;1.00;;;;;;5054136;28;20475;-74
2022/01/23 04:12:40;;;;;;;0.50;0.10;;;7.60;1.00;;;;;;5053752;28;20978;-73
2022/01/23 04:15:18;;;;;;;2.17;2.03;;;7.60;1.00;;;;;;5045843;28;20449;-74
2022/01/23 04:20:44;;;;;;;0.50;0.10;;;7.60;1.00;;;;;;5033713;28;20553;-74
2022/01/23 04:31:47;;;;;;;0.50;0.10;;;7.50;1.00;;;;;;5053399;28;20452;-73
2022/01/23 04:34:21;;;;;;;0.50;0.10;;;;;;;;;;5094725;22;20504;-79
2022/01/23 04:45:20;;;;;;;0.50;0.10;;;;;;;;;;5044916;28;20484;-79
2022/01/23 04:59:35;;;;;;;0.50;0.10;;;7.50;1.00;;;;;;5013274;28;20478;-82
2022/01/23 05:02:24;;;;;;;0.50;0.10;;;;;;;;;;5008631;28;20444;-81
2022/01/23 05:04:54;;;;;;;0.50;0.20;;;7.60;1.00;;;;;;5041669;28;20505;-79
2022/01/23 05:07:27;;;;;;;0.50;0.10;;;;;;;;;;5071481;28;21001;-80
2022/01/23 05:09:56;;;;;;;0.50;0.20;;;;;;;;;;5068639;28;20444;-79
2022/01/23 05:12:28;;;;;;;0.50;0.10;;;;;;;;;;5070802;28;20477;-79
2022/01/23 05:14:58;;;;;;;0.50;0.10;;;7.60;1.00;;;;;;5064384;28;20480;-78
2022/01/23 05:17:28;;;;;;;0.50;0.20;;;7.60;1.00;;;;;;5050312;28;20475;-79
2022/01/23 05:19:58;;;;;;;0.50;0.13;;;;;;;;;;5053128;28;20454;-79
2022/01/23 05:22:34;;;;;;;0.57;0.30;;;7.60;1.00;;;;;;5062661;28;20441;-80
2022/01/23 05:25:10;;;;;;;0.50;0.23;;;;;;;;;;5051651;28;20476;-79
2022/01/23 05:27:38;;;;;;;0.50;0.20;;;7.50;1.00;;;;;;5047948;28;20528;-79
2022/01/23 05:30:09;;;;;;;0.50;0.10;;;7.50;1.00;;;;;;5053819;28;20478;-79
2022/01/23 05:32:40;;;;;;;0.60;0.40;;;;;;;;;;5054364;28;20550;-79
2022/01/23 05:35:16;;;;;;;0.50;0.10;;;7.50;1.00;;;;;;5061781;28;20506;-79
2022/01/23 05:37:54;;;;;;;0.50;0.10;;;7.50;1.00;;;;;;5074079;28;20444;-79
2022/01/23 05:40:27;;;;;;;1.90;1.80;;;;;;;;;;5074142;28;20464;-83
2022/01/23 05:43:16;;;;;;;0.50;0.10;;;7.60;1.00;;;;;;5073437;28;20459;-79
2022/01/23 05:45:47;;;;;;;0.50;0.10;;;;;;;;;;5059651;28;20449;-79
2022/01/23 05:48:15;;;;;;;0.50;0.10;;;;;;;;;;5051489;28;20437;-79
2022/01/23 05:50:45;;;;;;;0.50;0.10;;;;;;;;;;5051360;28;20524;-79
2022/01/23 05:53:16;;;;;;;0.50;0.10;;;8.50;1.00;;;;;;5052286;28;20501;-79
2022/01/23 05:55:44;;;;;;;0.50;0.10;;;7.50;1.00;;;;;;5066516;28;20471;-79
2022/01/23 05:58:12;;;;;;;0.50;0.10;;;7.50;1.00;;;;;;5069623;28;20532;-79
2022/01/23 06:00:41;;;;;;;0.60;0.17;;;7.60;1.00;;;;;;5071236;28;20451;-80
2022/01/23 06:03:11;;;;;;;0.50;0.10;;;;;;;;;;5068847;28;20504;-79
2022/01/23 06:05:39;;;;;;;0.50;0.10;;;7.60;1.00;;;;;;5055633;28;20455;-79
2022/01/23 06:08:13;;;;;;;0.50;0.10;;;7.50;1.00;;;;;;5053228;28;20527;-78
2022/01/23 06:10:53;;;;;;;0.50;0.10;;;;;;;;;;5052690;28;20474;-79
2022/01/23 06:13:22;;;;;;;0.50;0.10;;;;;;;;;;5054340;28;20480;-78
2022/01/23 06:15:50;;;;;;;0.50;0.10;;;7.60;1.00;;;;;;5067716;28;20516;-79
2022/01/23 06:18:18;;;;;;;0.50;0.20;;;7.60;1.00;;;;;;5072135;28;20441;-79
2022/01/23 06:20:49;;;;;;;0.50;0.10;;;;;;;;;;5071174;28;20441;-79
2022/01/23 06:23:19;;;;;;;0.60;0.50;;;;;;;;;;5073845;28;20441;-78
2022/01/23 06:25:48;;;;;;;0.50;0.10;;;7.50;1.00;;;;;;5060690;28;20441;-78
2022/01/23 06:28:30;;;;;;;0.50;0.10;;;7.60;1.00;;;;;;5055730;28;20449;-78
2022/01/23 06:30:59;;;;;;;0.50;0.10;;;7.60;1.00;;;;;;5072323;28;20444;-78
2022/01/23 06:33:27;;;;;;;0.60;0.40;;;7.60;1.00;;;;;;5073007;28;20495;-78
2022/01/23 06:35:55;;;;;;;0.50;0.10;;;;;;;;;;5071194;28;20490;-79
2022/01/23 06:38:25;;;;;;;0.60;0.57;;;7.60;1.00;;;;;;5063559;28;20462;-78
2022/01/23 06:40:54;;;;;;;0.60;0.10;;;;;;;;;;5049405;28;20442;-79
2022/01/23 06:43:22;;;;;;;0.50;0.10;;;7.60;1.00;;;;;;5050103;28;20537;-78
2022/01/23 06:45:50;;;;;;;0.50;0.10;;;7.60;1.00;;;;;;5046084;28;20438;-79
2022/01/23 06:48:19;;;;;;;0.50;0.10;;;7.60;1.00;;;;;;5051696;28;21551;-78
2022/01/23 06:50:48;;;;;;;0.50;0.20;;;;;;;;;;5069847;28;20471;-81
2022/01/23 06:53:16;;;;;;;0.50;0.10;;;;;;;;;;5069775;28;20484;-79
2022/01/23 06:55:48;;;;;;;0.50;0.10;;;;;;;;;;5071338;28;20459;-79
2022/01/23 06:58:19;;;;;;;0.50;0.10;;;;;;;;;;5067690;28;20443;-79
2022/01/23 07:00:48;;;;;;;0.50;0.10;;;;;;;;;;5045878;28;20461;-77
2022/01/23 07:03:17;;;;;;;0.50;0.10;;;;;;;;;;5051393;28;20425;-79
2022/01/23 07:05:45;;;;;;;0.50;0.10;;;;;;;;;;5053374;28;20438;-78
2022/01/23 07:08:15;;;;;;;0.50;0.10;;;;;;;;;;5053623;28;20449;-78
2022/01/23 07:10:44;;;;;;;0.50;0.10;;;;;;;;;;5053599;28;20485;-78
2022/01/23 07:13:13;;;;;;;0.50;0.10;;;7.40;1.00;;;;;;5047541;28;20528;-79
2022/01/23 07:15:45;;;;;;;0.50;0.10;;;;;;;;;;5047767;28;20501;-79
2022/01/23 07:18:15;;;;;;;0.50;0.10;;;;;;;;;;5048972;28;20469;-80
2022/01/23 07:20:44;;;;;;;0.50;0.10;;;;;;;;;;5047274;28;20433;-79
2022/01/23 07:23:12;;;;;;;0.50;0.10;;;;;;;;;;5043696;28;20418;-79
2022/01/23 07:25:42;;;;;;;0.50;0.10;;;7.40;1.00;;;;;;5045188;28;20439;-79
2022/01/23 07:28:13;;;;;;;0.50;0.10;;;7.40;1.00;;;;;;5046173;28;20465;-78
2022/01/23 07:30:49;;;;;;;0.50;0.10;;;;;;;;;;5048392;28;20453;-78
2022/01/23 07:33:18;;;;;;;3.07;2.87;;;;;;;;;;5043717;28;20469;-79
2022/01/23 07:35:47;;;;;;;0.50;0.10;;;7.50;1.00;;;;;;5046664;28;20488;-78
2022/01/23 07:38:17;;;;;;;0.50;0.10;;;7.50;1.00;;;;;;5046960;28;20445;-78
2022/01/23 07:40:46;;;;;;;0.50;0.10;;;;;;;;;;5063684;28;20482;-78
2022/01/23 07:43:16;;;;;;;0.50;0.10;;;7.60;1.00;;;;;;5064027;28;20996;-79
2022/01/23 07:45:46;;;;;;;0.50;0.10;;;;;;;;;;5051238;28;20438;-80
2022/01/23 07:48:14;;;;;;;0.50;0.10;;;;;;;;;;5046440;28;20502;-78
2022/01/23 07:50:43;;;;;;;0.50;0.10;;;;;;;;;;5049569;28;20480;-79
2022/01/23 07:53:11;;;;;;;0.50;0.10;;;;;;;;;;5050514;28;20531;-79
2022/01/23 07:55:42;;;;;;;0.50;0.10;;;7.60;1.00;;;;;;5048108;28;20440;-78
2022/01/23 07:58:14;;;;;;;0.50;0.10;;;;;;;;;;5047728;28;20921;-78
2022/01/23 08:00:50;;;;;;;0.50;0.10;;;;;;;;;;5043420;28;20464;-78
2022/01/23 08:03:19;;;;;;;0.50;0.10;;;7.60;1.00;;;;;;5046619;28;20461;-78
2022/01/23 08:05:49;;;;;;;0.50;0.10;;;8.90;1.00;;;;;;5043945;28;20527;-78
2022/01/23 08:08:18;;;;;;;0.50;0.10;;;;;;;;;;5048473;28;20454;-78
2022/01/23 08:10:46;;;;;;;0.50;0.10;;;7.60;1.00;;;;;;5063047;28;20444;-79
2022/01/23 08:13:15;;;;;;;0.50;0.10;;;;;;;;;;5040536;28;20454;-78
2022/01/23 08:15:43;;;;;;;0.50;0.10;;;;;;;;;;5040761;28;20492;-78
2022/01/23 08:18:15;;;;;;;0.50;0.10;;;;;;;;;;5044304;28;20440;-77
2022/01/23 08:20:43;;;;;;;0.50;0.10;;;7.50;1.00;;;;;;5025224;28;20426;-77
2022/01/23 08:23:12;;;;;;;0.50;0.10;;;7.50;1.00;;;;;;5032631;28;20468;-77
2022/01/23 08:25:42;;;;;;;0.50;0.10;;;7.60;1.00;;;;;;5045564;28;20501;-78
2022/01/23 08:28:10;;;;;;;0.50;0.10;;;7.60;1.00;;;;;;5048526;28;20506;-77
2022/01/23 08:30:39;;;;;;;0.50;0.10;;;;;;;;;;5063543;28;20819;-77
2022/01/23 08:33:07;;;;;;;0.50;0.10;;;7.70;1.00;;;;;;5053171;28;20453;-78
2022/01/23 08:35:37;;;;;;;0.50;0.10;;;7.70;1.00;;;;;;5043946;28;20485;-78
2022/01/23 08:38:06;;;;;;;0.50;0.10;;;7.70;1.00;;;;;;5042687;28;20456;-78
2022/01/23 08:43:24;;;;;;;0.50;0.10;;;7.70;1.00;;;;;;5035089;28;20502;-78
2022/01/23 08:46:19;;;;;;;0.50;0.10;;;7.70;1.00;;;;;;5044780;28;20437;-77
2022/01/23 08:48:48;;;;;;;0.50;0.10;;;7.70;1.00;;;;;;5045334;28;20507;-78
2022/01/23 08:51:18;;;;;;;0.50;0.10;;;;;;;;;;5043842;28;20569;-78
2022/01/23 08:53:46;;;;;;;0.50;0.10;;;;;;;;;;5045000;28;20465;-78
2022/01/23 08:56:15;;;;;;;0.50;0.10;;;;;;;;;;5046295;28;20838;-78
2022/01/23 08:58:44;;;;;;;0.50;0.10;;;7.80;1.00;;;;;;5043858;28;20483;-78
2022/01/23 09:01:12;;;;;;;3.07;2.93;;;;;;;;;;5041686;28;20430;-78
2022/01/23 09:03:42;;;;;;;0.50;0.10;;;;;;;;;;5044460;28;20461;-78
2022/01/23 09:06:13;;;;;;;33.93;24.17;;;7.90;1.00;;;;;;5042029;28;20439;-78
2022/01/23 09:08:43;;;;;;;0.53;0.20;;;7.90;1.00;;;;;;5036680;28;20504;-77
2022/01/23 09:11:26;;;;;;;0.50;0.10;;;7.90;1.00;;;;;;5040715;28;20452;-77
2022/01/23 09:14:06;;;;;;;0.50;0.10;;;7.70;1.00;;;;;;5038841;28;20481;-78
2022/01/23 09:16:37;;;;;;;0.50;0.10;;;7.90;1.00;;;;;;5037929;28;20468;-78
2022/01/23 09:19:06;;;;;;;0.80;0.50;;;7.90;1.00;;;;;;5038509;28;20455;-78
2022/01/23 09:21:34;;;;;;;0.50;0.10;;;7.90;1.00;;;;;;5038366;28;20493;-77
2022/01/23 09:24:05;;;;;;;0.50;0.20;;;7.90;1.00;;;;;;5026613;28;20486;-78
2022/01/23 09:26:34;;;;;;;0.60;0.20;;;7.90;1.00;;;;;;5051658;28;20460;-77
2022/01/23 09:29:12;;;;;;;0.50;0.10;;;;;;;;;;5059071;28;20436;-77
2022/01/23 09:31:48;;;;;;;0.50;0.20;;;7.90;1.00;;;;;;5062697;28;20440;-78
2022/01/23 09:34:17;;;;;;;1.00;0.87;;;;;;;;;;5061972;28;20477;-78
2022/01/23 09:36:48;;;;;;;0.50;0.10;;;8.00;1.00;;;;;;5058945;28;20475;-78
2022/01/23 09:39:20;;;;;;;0.50;0.10;;;8.10;1.00;;;;;;5053629;28;20462;-78
2022/01/23 09:42:01;;;;;;;0.50;0.10;;;8.10;1.00;;;;;;5042478;28;20446;-78
2022/01/23 09:44:37;;;;;;;0.50;0.10;;;8.10;1.00;;;;;;5041053;28;20539;-80
2022/01/23 09:47:11;;;;;;;1.23;1.13;;;8.10;1.00;;;;;;5048241;28;20469;-79
2022/01/23 09:49:44;;;;;;;0.50;0.10;;;8.20;1.00;;;;;;5049480;28;20453;-79
2022/01/23 09:52:14;;;;;;;15.87;14.83;;;8.20;1.00;;;;;;5020899;28;20544;-79
2022/01/23 09:54:53;;;;;;;0.50;0.10;;;8.20;1.00;;;;;;5037236;28;20635;-79
2022/01/23 09:57:24;;;;;;;0.50;0.10;;;8.20;1.00;;;;;;5040042;28;20488;-79
2022/01/23 09:59:54;;;;;;;0.50;0.10;;;8.20;1.00;;;;;;5050984;28;20509;-78
2022/01/23 10:02:24;;;;;;;0.50;0.10;;;8.20;1.00;;;;;;5051660;28;20457;-78
2022/01/23 10:04:52;;;;;;;0.50;0.10;;;8.20;1.00;;;;;;5048751;28;20467;-78
2022/01/23 10:07:22;;;;;;;0.50;0.10;;;8.20;1.00;;;;;;5047644;28;20431;-79
2022/01/23 10:10:07;;;;;;;0.50;0.10;;;;;;;;;;5043850;28;20485;-79
2022/01/23 10:12:35;;;;;;;0.50;0.10;;;;;;;;;;5039118;28;20525;-79
2022/01/23 10:15:04;;;;;;;0.50;0.10;;;8.30;1.00;;;;;;5036926;28;21046;-79
2022/01/23 10:17:32;;;;;;;0.50;0.10;;;8.40;1.00;;;;;;5039882;28;20858;-79
2022/01/23 10:20:01;;;;;;;0.50;0.10;;;8.40;1.00;;;;;;5037652;28;20445;-79
2022/01/23 10:22:31;;;;;;;0.50;0.10;;;8.40;1.00;;;;;;5038152;28;20545;-79
2022/01/23 10:25:10;;;;;;;0.50;0.10;;;8.40;1.00;;;;;;5037262;28;20458;-79
2022/01/23 10:28:01;;;;;;;0.50;0.10;;;8.40;1.00;;;;;;5036354;28;20448;-79
2022/01/23 10:30:32;;;;;;;0.50;0.13;;;8.40;1.00;;;;;;5034955;28;21007;-79
2022/01/23 10:33:06;;;;;;;0.50;0.10;;;9.70;1.00;;;;;;5041828;28;20505;-79
2022/01/23 10:35:35;;;;;;;0.50;0.10;;;8.50;1.00;;;;;;5047139;28;20477;-77
2022/01/23 10:38:12;;;;;;;0.50;0.10;;;8.60;1.00;;;;;;5045705;28;20524;-79
2022/01/23 10:40:49;;;;;;;3.70;3.10;;;;;;;;;;5056224;28;20454;-80
2022/01/23 10:49:01;;;;;;;0.50;0.10;;;8.60;1.00;;;;;;5041547;28;20525;-78
2022/01/23 10:51:35;;;;;;;0.60;0.10;;;8.70;1.00;;;;;;5045242;28;20451;-81
2022/01/23 10:54:11;;;;;;;0.50;0.10;;;8.70;1.00;;;;;;5046751;28;20465;-80
2022/01/23 10:56:57;;;;;;;0.50;0.10;;;;;;;;;;5048921;28;20465;-80
2022/01/23 10:59:27;;;;;;;0.50;0.10;;;;;;;;;;5047823;28;20449;-80
2022/01/23 11:02:04;;;;;;;0.53;0.33;;;8.70;1.00;;;;;;5043233;28;20710;-79
2022/01/23 11:04:35;;;;;;;0.50;0.10;;;8.70;1.00;;;;;;5039591;28;20461;-80
2022/01/23 11:07:07;;;;;;;0.50;0.10;;;8.70;1.00;;;;;;5045164;28;20985;-80
2022/01/23 11:09:41;;;;;;;0.50;0.10;;;8.70;1.00;;;;;;5038295;28;20452;-80
2022/01/23 11:12:23;;;;;;;0.50;0.10;;;;;;;;;;5053121;28;20461;-80
2022/01/23 11:17:51;;;;;;;0.50;0.10;;;8.90;1.00;;;;;;5023672;28;20503;-80
2022/01/23 11:20:35;;;;;;;0.60;0.13;;;8.90;1.00;;;;;;5050540;28;20808;-80
2022/01/23 11:23:11;;;;;;;0.50;0.10;;;;;;;;;;5053105;28;20467;-79
2022/01/23 11:25:43;;;;;;;0.50;0.10;;;;;;;;;;5045660;28;20438;-79
2022/01/23 11:28:14;;;;;;;0.50;0.10;;;;;;;;;;5048191;28;20463;-79
2022/01/23 11:30:45;;;;;;;2.23;2.13;;;8.90;1.00;;;;;;5043800;28;20540;-80
2022/01/23 11:33:21;;;;;;;1.07;0.70;;;8.90;1.00;;;;;;5036580;28;20444;-79
2022/01/23 11:35:52;;;;;;;0.50;0.10;;;9.00;1.00;;;;;;5041785;28;20489;-78
2022/01/23 11:38:24;;;;;;;0.60;0.20;;;9.00;1.00;;;;;;5055311;28;20472;-79
2022/01/23 11:55:29;;;;;;;0.60;0.10;;;9.00;1.00;;;;;;5044908;28;20481;-79
2022/01/23 11:57:59;;;;;;;0.60;0.10;;;9.10;1.00;;;;;;5048109;28;20470;-82
2022/01/23 12:00:31;;;;;;;0.50;0.10;;;9.10;1.00;;;;;;5062609;28;20434;-78
2022/01/23 12:03:14;;;;;;;0.50;0.10;;;9.10;1.00;;;;;;5059804;28;20496;-79
2022/01/23 12:05:45;;;;;;;0.60;0.10;;;;;;;;;;5062838;28;20452;-79
2022/01/23 12:08:28;;;;;;;0.60;0.10;;;9.20;1.00;;;;;;5054144;28;20533;-78
2022/01/23 12:17:45;;;;;;;0.57;0.10;;;9.20;1.00;;;;;;5032013;28;20514;-78
2022/01/23 12:20:16;;;;;;;0.60;0.10;;;;;;;;;;5057173;28;20446;-78
2022/01/23 12:22:57;;;;;;;0.60;0.10;;;9.20;1.00;;;;;;5038060;28;20485;-78
2022/01/23 12:25:30;;;;;;;0.60;0.10;;;9.20;1.00;;;;;;5038584;28;20462;-77
2022/01/23 12:28:21;;;;;;;0.60;0.10;;;9.20;1.00;;;;;;5036723;28;20484;-78
2022/01/23 12:33:51;;;;;;;0.60;0.10;;;9.10;99.90;;;;;;5036536;28;20538;-78
2022/01/23 12:36:24;;;;;;;0.60;0.10;;;9.10;99.90;;;;;;5037482;28;20485;-78
2022/01/23 12:38:57;;;;;;;0.60;0.10;;;9.10;99.90;;;;;;5037601;28;20876;-78
2022/01/23 12:41:32;;;;;;;0.60;0.10;;;9.00;99.90;;;;;;5037705;28;20926;-78
2022/01/23 12:44:04;;;;;;;0.60;0.10;;;9.00;99.90;;;;;;5048437;28;20464;-78
2022/01/23 12:46:39;;;;;;;0.60;0.10;;;9.00;99.90;;;;;;5051714;28;20965;-78
2022/01/23 12:49:25;;;;;;;0.60;0.10;;;9.00;99.90;;;;;;5036869;28;20544;-78
2022/01/23 12:52:10;;;;;;;0.60;0.10;;;8.90;99.90;;;;;;5036347;28;20518;-78
2022/01/23 12:54:53;;;;;;;0.60;0.10;;;;;;;;;;5036404;28;20477;-78
2022/01/23 12:57:24;;;;;;;0.60;0.10;;;8.90;99.90;;;;;;5031394;28;20477;-78
2022/01/23 12:59:54;;;;;;;0.60;0.10;;;8.90;99.90;;;;;;5037452;28;20500;-78
2022/01/23 13:02:33;;;;;;;0.60;0.10;;;;;;;;;;5036505;28;20512;-78
2022/01/23 13:05:03;;;;;;;0.60;0.10;;;;;;;;;;5042036;28;20473;-78
2022/01/23 13:07:40;;;;;;;0.60;0.10;;;8.90;99.90;;;;;;5037795;28;20446;-78
2022/01/23 13:10:25;;;;;;;0.60;0.10;;;8.90;99.90;;;;;;5037447;28;20484;-78
2022/01/23 13:13:05;;;;;;;0.60;0.10;;;8.90;99.90;;;;;;5036942;28;20478;-78
2022/01/23 13:18:42;;;;;;;0.60;0.10;;;;;;;;;;5032108;28;20442;-78
2022/01/23 13:30:01;;;;;;;0.60;0.10;;;8.70;99.90;;;;;;5032968;28;20482;-78
2022/01/23 13:32:38;;;;;;;0.60;0.10;;;8.70;99.90;;;;;;5035380;28;20450;-78
2022/01/23 13:35:11;;;;;;;0.60;0.10;;;;;;;;;;5050240;28;20476;-78
2022/01/23 13:37:46;;;;;;;0.60;0.20;;;8.70;99.90;;;;;;5049943;28;20580;-78
2022/01/23 13:40:18;;;;;;;0.60;0.10;;;8.80;99.90;;;;;;5029565;28;20479;-78
2022/01/23 13:51:32;;;;;;;0.60;0.10;;;8.70;99.90;;;;;;5035635;28;20445;-79
2022/01/23 13:54:20;;;;;;;3.60;1.03;;;8.70;99.90;;;;;;5039759;28;20589;-78
2022/01/23 13:59:47;;;;;;;0.60;0.10;;;8.70;99.90;;;;;;5029140;28;20450;-80
2022/01/23 14:02:22;;;;;;;0.60;0.10;;;8.70;99.90;;;;;;5030764;28;20508;-80
2022/01/23 14:04:53;;;;;;;0.60;0.10;;;8.60;99.90;;;;;;5053497;28;20946;-79
2022/01/23 14:07:27;;;;;;;0.60;0.10;;;8.60;99.90;;;;;;5069912;28;20463;-81
2022/01/23 14:10:11;;;;;;;0.60;0.10;;;8.60;99.90;;;;;;5051471;28;20517;-80
2022/01/23 14:12:40;;;;;;;0.60;0.10;;;;;;;;;;5046549;28;20470;-79
2022/01/23 14:15:21;;;;;;;0.60;0.10;;;8.50;99.90;;;;;;5044311;28;20553;-79
2022/01/23 14:18:03;;;;;;;0.60;0.10;;;;;;;;;;5045440;28;20477;-79
2022/01/23 14:20:36;;;;;;;0.60;0.10;;;8.40;99.90;;;;;;5043161;28;20454;-80
2022/01/23 14:23:15;;;;;;;0.60;0.10;;;8.30;99.90;;;;;;5046097;28;20442;-81
2022/01/23 14:25:54;;;;;;;0.60;0.10;;;8.30;99.90;;;;;;5050346;28;20446;-81
2022/01/23 14:28:27;;;;;;;0.60;0.10;;;;;;;;;;5050089;28;20430;-80
2022/01/23 14:30:58;;;;;;;0.60;0.10;;;;;;;;;;5049934;28;20446;-79
2022/01/23 14:33:30;;;;;;;0.70;0.40;;;8.30;99.90;;;;;;5030363;28;21008;-79
2022/01/23 14:36:15;;;;;;;0.60;0.20;;;8.30;99.90;;;;;;5045975;28;20461;-80
2022/01/23 14:38:55;;;;;;;0.60;0.10;;;8.30;99.90;;;;;;5046647;28;20856;-79
2022/01/23 14:41:28;;;;;;;1.47;1.37;;;8.30;1.00;;;;;;5048094;28;20456;-81
2022/01/23 14:43:56;;;;;;;0.60;0.10;;;8.30;1.00;;;;;;5046178;28;20503;-81
2022/01/23 14:46:34;;;;;;;0.60;0.10;;;8.30;1.00;;;;;;5053295;28;20544;-83
2022/01/23 14:49:10;;;;;;;0.60;0.10;;;8.30;1.00;;;;;;5046443;28;20448;-81
2022/01/23 14:51:44;;;;;;;0.60;0.10;;;8.30;1.00;;;;;;5049729;28;20443;-80
2022/01/23 14:54:12;;;;;;;0.60;0.10;;;8.30;1.00;;;;;;5049297;28;20463;-78
2022/01/23 14:56:44;;;;;;;0.60;0.10;;;8.30;1.00;;;;;;5052322;28;20443;-79
2022/01/23 14:59:18;;;;;;;0.60;0.20;;;8.30;1.00;;;;;;5041570;28;20454;-80
2022/01/23 15:01:48;;;;;;;0.60;0.10;;;8.40;99.90;;;;;;5046018;28;20449;-79
2022/01/23 15:04:20;;;;;;;0.60;0.10;;;;;;;;;;5045480;28;20489;-79
2022/01/23 15:06:51;;;;;;;0.60;0.10;;;8.40;99.90;;;;;;5048092;28;20516;-79
2022/01/23 15:09:22;;;;;;;0.60;0.10;;;8.30;99.90;;;;;;5046075;28;20458;-79
2022/01/23 15:11:52;;;;;;;0.60;0.10;;;;;;;;;;5044309;28;20458;-79
2022/01/23 15:14:21;;;;;;;0.60;0.20;;;;;;;;;;5049268;28;20460;-80
2022/01/23 15:16:50;;;;;;;0.60;0.10;;;;;;;;;;5044002;28;20529;-79
2022/01/23 15:19:19;;;;;;;0.60;0.10;;;8.20;99.90;;;;;;5035304;28;20457;-78
2022/01/23 15:21:47;;;;;;;0.60;0.10;;;8.10;99.90;;;;;;5035650;28;20485;-78
2022/01/23 15:24:16;;;;;;;0.60;0.10;;;;;;;;;;5039581;28;20505;-78
2022/01/23 15:26:44;;;;;;;0.60;0.10;;;;;;;;;;5055241;28;20448;-78
2022/01/23 15:29:14;;;;;;;0.60;0.10;;;8.10;99.90;;;;;;5038556;28;20451;-78
2022/01/23 15:31:45;;;;;;;0.60;0.10;;;8.10;99.90;;;;;;5036206;28;20545;-81
2022/01/23 15:34:17;;;;;;;0.60;0.10;;;8.20;99.90;;;;;;5043753;28;20483;-82
2022/01/23 15:36:50;;;;;;;0.60;0.10;;;8.20;99.90;;;;;;5028435;28;20510;-82
2022/01/23 15:39:18;;;;;;;0.60;0.10;;;;;;;;;;5043328;28;20481;-81
2022/01/23 15:41:47;;;;;;;0.60;0.10;;;;;;;;;;5044288;28;20469;-81
2022/01/23 15:44:17;;;;;;;0.60;0.10;;;;;;;;;;5045876;28;20468;-81
2022/01/23 15:46:47;;;;;;;0.60;0.10;;;;;;;;;;5047478;28;20454;-81
2022/01/23 15:49:16;;;;;;;0.60;0.20;;;;;;;;;;5048665;28;20548;-84
2022/01/23 15:51:47;;;;;;;0.60;0.10;;;8.20;99.90;;;;;;5049495;28;20459;-80
2022/01/23 15:54:17;;;;;;;0.60;0.10;;;;;;;;;;5054132;28;20473;-81
2022/01/23 15:56:47;;;;;;;0.60;0.10;;;8.20;99.90;;;;;;5069750;28;20431;-82
2022/01/23 15:59:17;;;;;;;0.60;0.10;;;;;;;;;;5068935;28;20505;-82
2022/01/23 16:01:51;;;;;;;0.60;0.10;;;8.20;99.90;;;;;;5067408;28;20460;-81
2022/01/23 16:04:21;;;;;;;0.60;0.10;;;8.20;99.90;;;;;;5048972;28;21082;-81
2022/01/23 16:06:50;;;;;;;0.60;0.10;;;;;;;;;;5046418;28;20525;-82
2022/01/23 16:09:18;;;;;;;0.60;0.10;;;8.30;99.90;;;;;;5050519;28;20436;-83
2022/01/23 16:11:46;;;;;;;0.60;0.10;;;8.20;99.90;;;;;;5041974;28;20442;-82
2022/01/23 16:14:20;;;;;;;0.60;0.10;;;;;;;;;;5041869;28;20548;-78
2022/01/23 16:16:49;;;;;;;0.60;0.20;;;8.20;99.90;;;;;;5038995;28;20438;-80
2022/01/23 16:19:17;;;;;;;0.60;0.10;;;8.20;99.90;;;;;;5038814;28;20490;-79
2022/01/23 16:21:45;;;;;;;0.60;0.10;;;8.10;99.90;;;;;;5043438;28;20453;-79
2022/01/23 16:24:14;;;;;;;0.60;0.10;;;8.10;99.90;;;;;;5039799;28;20486;-80
2022/01/23 16:26:43;;;;;;;0.60;0.10;;;8.10;99.90;;;;;;5041577;28;20450;-83
2022/01/23 16:29:13;;;;;;;0.60;0.10;;;;;;;;;;5047408;28;20461;-80
2022/01/23 16:31:44;;;;;;;0.60;0.10;;;8.00;1.00;;;;;;5047554;28;20435;-82
2022/01/23 16:34:12;;;;;;;0.60;0.10;;;8.00;1.00;;;;;;5032040;28;20493;-81
2022/01/23 16:36:49;;;;;;;0.60;0.10;;;8.00;1.00;;;;;;5060512;28;20986;-81
2022/01/23 16:39:17;;;;;;;0.60;0.10;;;8.00;1.00;;;;;;5042059;28;20481;-80
2022/01/23 16:41:46;;;;;;;0.80;0.33;;;8.00;1.00;;;;;;5051133;28;20485;-80
2022/01/23 16:44:17;;;;;;;0.60;0.10;;;8.00;1.00;;;;;;5043927;28;20477;-82